createdAt,value
2022-11-12T00:01:06.864Z,57.30
2022-11-12T00:03:34.684Z,57.40
2022-11-12T00:06:04.185Z,57.30
2022-11-12T00:08:32.029Z,57.30
2022-11-12T00:10:59.883Z,57.30
2022-11-12T00:13:27.721Z,57.30
2022-11-12T00:15:55.566Z,57.30
2022-11-12T00:18:23.503Z,57.30
2022-11-12T00:20:51.569Z,57.40
2022-11-12T00:23:20.720Z,57.30
2022-11-12T00:25:48.528Z,57.30
2022-11-12T00:28:16.379Z,57.40
2022-11-12T00:30:44.220Z,57.30
2022-11-12T00:33:12.066Z,57.30
2022-11-12T00:35:39.921Z,57.40
2022-11-12T00:38:07.809Z,57.20
2022-11-12T00:40:36.994Z,57.30
2022-11-12T00:43:04.839Z,57.20
2022-11-12T00:45:32.970Z,57.20
2022-11-12T00:48:00.894Z,57.30
2022-11-12T00:50:28.704Z,57.30
2022-11-12T00:52:56.551Z,57.30
2022-11-12T00:55:24.555Z,57.20
2022-11-12T00:57:53.796Z,57.20
2022-11-12T01:00:21.951Z,57.30
2022-11-12T01:02:51.370Z,57.20
2022-11-12T01:05:20.558Z,57.30
2022-11-12T01:07:54.711Z,57.30
2022-11-12T01:10:23.790Z,57.20
2022-11-12T01:12:52.971Z,57.20
2022-11-12T01:15:20.780Z,57.20
2022-11-12T01:17:48.702Z,57.20
2022-11-12T01:20:16.846Z,57.20
2022-11-12T01:22:44.761Z,57.20
2022-11-12T01:25:12.646Z,57.20
2022-11-12T01:27:40.506Z,57.20
2022-11-12T01:30:11.325Z,57.20
2022-11-12T01:32:39.179Z,57.20
2022-11-12T01:35:07.673Z,57.20
2022-11-12T01:37:35.558Z,57.20
2022-11-12T01:40:03.460Z,57.20
2022-11-12T01:42:33.552Z,57.20
2022-11-12T01:45:01.464Z,57.20
2022-11-12T01:47:33.435Z,57.20
2022-11-12T01:50:06.767Z,57.20
2022-11-12T01:52:40.045Z,57.20
2022-11-12T01:55:14.714Z,57.20
2022-11-12T01:57:48.303Z,57.20
2022-11-12T02:00:17.632Z,57.20
2022-11-12T02:02:52.757Z,57.20
2022-11-12T02:05:22.922Z,57.20
2022-11-12T02:07:52.315Z,57.20
2022-11-12T02:10:20.703Z,57.20
2022-11-12T02:13:07.462Z,57.20
2022-11-12T02:15:35.646Z,57.20
2022-11-12T02:18:05.763Z,57.20
2022-11-12T02:20:35.313Z,57.20
2022-11-12T02:23:05.338Z,57.10
2022-11-12T02:25:34.429Z,57.20
2022-11-12T02:28:03.832Z,57.20
2022-11-12T02:30:36.026Z,57.20
2022-11-12T02:33:03.964Z,57.20
2022-11-12T02:35:32.925Z,57.20
2022-11-12T02:38:01.102Z,57.20
2022-11-12T02:40:30.313Z,57.20
2022-11-12T02:42:58.907Z,57.20
2022-11-12T02:45:27.206Z,57.10
2022-11-12T02:47:55.175Z,57.10
2022-11-12T02:50:23.068Z,57.20
2022-11-12T02:52:50.948Z,57.20
2022-11-12T02:55:18.986Z,57.10
2022-11-12T02:57:48.167Z,57.10
2022-11-12T03:00:16.311Z,57.10
2022-11-12T03:02:58.676Z,57.10
2022-11-12T03:05:27.274Z,57.10
2022-11-12T03:07:59.342Z,57.10
2022-11-12T03:10:27.646Z,57.10
2022-11-12T03:12:58.364Z,57.10
2022-11-12T03:15:26.702Z,57.10
2022-11-12T03:17:54.851Z,57.20
2022-11-12T03:20:22.855Z,57.10
2022-11-12T03:22:57.545Z,57.10
2022-11-12T03:25:26.282Z,57.10
2022-11-12T03:28:03.382Z,57.10
2022-11-12T03:30:34.810Z,57.10
2022-11-12T03:33:02.742Z,57.10
2022-11-12T03:35:30.673Z,57.10
2022-11-12T03:37:58.707Z,57.10
2022-11-12T03:40:28.130Z,57.10
2022-11-12T03:42:56.036Z,57.10
2022-11-12T03:45:26.979Z,57.10
2022-11-12T03:47:56.340Z,57.10
2022-11-12T03:50:25.631Z,57.10
2022-11-12T03:52:55.805Z,57.10
2022-11-12T03:55:25.182Z,57.10
2022-11-12T03:57:54.047Z,57.10
2022-11-12T04:00:23.328Z,57.10
2022-11-12T04:02:52.924Z,57.10
2022-11-12T04:05:38.239Z,57.10
2022-11-12T04:08:37.328Z,57.10
2022-11-12T04:11:07.316Z,57.10
2022-11-12T04:13:35.528Z,57.20
2022-11-12T04:16:22.394Z,57.10
2022-11-12T04:19:11.012Z,57.10
2022-11-12T04:21:54.846Z,57.10
2022-11-12T04:24:43.362Z,57.10
2022-11-12T04:27:13.598Z,57.10
2022-11-12T04:29:59.209Z,57.10
2022-11-12T04:32:27.208Z,57.00
2022-11-12T04:34:57.027Z,57.00
2022-11-12T04:37:26.394Z,57.20
2022-11-12T04:39:54.576Z,57.10
2022-11-12T04:42:39.976Z,57.10
2022-11-12T04:45:10.752Z,57.00
2022-11-12T04:47:40.658Z,57.10
2022-11-12T04:50:16.742Z,57.10
2022-11-12T04:52:44.748Z,57.10
2022-11-12T04:55:12.616Z,57.10
2022-11-12T04:57:40.994Z,57.10
2022-11-12T05:00:10.255Z,57.10
2022-11-12T05:02:38.107Z,57.10
2022-11-12T05:05:06.612Z,57.00
2022-11-12T05:07:35.798Z,57.10
2022-11-12T05:10:03.672Z,57.00
2022-11-12T05:12:31.498Z,57.10
2022-11-12T05:14:59.318Z,57.10
2022-11-12T05:17:27.178Z,57.00
2022-11-12T05:19:55.013Z,57.00
2022-11-12T05:22:42.534Z,57.00
2022-11-12T05:25:12.192Z,57.10
2022-11-12T05:27:40.101Z,57.00
2022-11-12T05:30:08.966Z,57.00
2022-11-12T05:32:37.467Z,57.00
2022-11-12T05:35:05.915Z,57.00
2022-11-12T05:37:33.739Z,57.00
2022-11-12T05:40:01.543Z,57.70
2022-11-12T05:42:30.704Z,57.00
2022-11-12T05:44:58.596Z,57.10
2022-11-12T05:47:26.417Z,57.10
2022-11-12T05:49:54.227Z,57.00
2022-11-12T05:52:22.088Z,57.10
2022-11-12T05:54:49.927Z,57.10
2022-11-12T05:57:17.749Z,57.10
2022-11-12T05:59:46.900Z,57.10
2022-11-12T06:02:14.830Z,57.10
2022-11-12T06:04:42.658Z,57.10
2022-11-12T06:07:10.527Z,57.10
2022-11-12T06:09:38.419Z,57.10
2022-11-12T06:12:08.404Z,57.10
2022-11-12T06:14:36.281Z,57.10
2022-11-12T06:17:05.450Z,57.10
2022-11-12T06:19:33.277Z,57.10
2022-11-12T06:22:01.109Z,57.10
2022-11-12T06:24:34.966Z,57.10
2022-11-12T06:27:03.323Z,57.10
2022-11-12T06:29:31.181Z,57.10
2022-11-12T06:31:59.039Z,57.10
2022-11-12T06:34:28.220Z,57.10
2022-11-12T06:36:56.044Z,57.10
2022-11-12T06:39:23.855Z,57.10
2022-11-12T06:41:51.707Z,57.00
2022-11-12T06:44:22.365Z,57.10
2022-11-12T06:46:50.477Z,57.10
2022-11-12T06:49:18.319Z,57.00
2022-11-12T06:51:47.520Z,57.10
2022-11-12T06:54:15.563Z,57.00
2022-11-12T06:56:43.382Z,57.10
2022-11-12T06:59:11.433Z,57.00
2022-11-12T07:01:39.317Z,57.10
2022-11-12T07:04:07.166Z,57.10
2022-11-12T07:06:35.369Z,57.00
2022-11-12T07:09:04.660Z,57.00
2022-11-12T07:11:32.530Z,57.00
2022-11-12T07:14:00.390Z,57.00
2022-11-12T07:16:28.241Z,57.00
2022-11-12T07:18:56.055Z,57.00
2022-11-12T07:21:23.927Z,57.00
2022-11-12T07:23:51.743Z,57.00
2022-11-12T07:26:22.615Z,57.00
2022-11-12T07:28:51.992Z,57.00
2022-11-12T07:31:21.322Z,57.00
2022-11-12T07:33:49.749Z,57.00
2022-11-12T07:36:19.679Z,57.00
2022-11-12T07:38:48.486Z,57.00
2022-11-12T07:41:18.615Z,57.00
2022-11-12T07:43:49.125Z,57.00
2022-11-12T07:46:19.513Z,57.00
2022-11-12T07:48:48.008Z,57.00
2022-11-12T07:51:17.402Z,57.00
2022-11-12T07:53:46.533Z,57.00
2022-11-12T07:56:16.111Z,57.00
2022-11-12T07:58:44.421Z,57.00
2022-11-12T08:01:24.671Z,57.00
2022-11-12T08:03:52.525Z,57.10
2022-11-12T08:06:20.865Z,57.10
2022-11-12T08:08:48.936Z,57.10
2022-11-12T08:11:16.782Z,57.00
2022-11-12T08:13:44.603Z,57.00
2022-11-12T08:16:13.796Z,57.00
2022-11-12T08:18:41.990Z,57.10
2022-11-12T08:21:13.238Z,57.00
2022-11-12T08:23:41.484Z,57.00
2022-11-12T08:26:12.096Z,57.00
2022-11-12T08:28:40.028Z,57.10
2022-11-12T08:31:10.104Z,57.10
2022-11-12T08:33:39.779Z,57.10
2022-11-12T08:36:09.483Z,57.00
2022-11-12T08:38:37.961Z,57.00
2022-11-12T08:41:07.917Z,57.10
2022-11-12T08:43:36.255Z,57.00
2022-11-12T08:46:04.998Z,57.00
2022-11-12T08:48:34.020Z,57.10
2022-11-12T08:51:03.981Z,57.00
2022-11-12T08:53:32.014Z,57.00
2022-11-12T08:56:00.828Z,57.00
2022-11-12T08:58:29.138Z,57.10
2022-11-12T09:00:58.176Z,57.10
2022-11-12T09:03:27.165Z,57.00
2022-11-12T09:05:55.534Z,57.10
2022-11-12T09:08:26.403Z,57.10
2022-11-12T09:10:54.472Z,57.00
2022-11-12T09:13:22.449Z,57.10
2022-11-12T09:15:50.349Z,57.00
2022-11-12T09:18:19.445Z,57.10
2022-11-12T09:20:47.501Z,57.10
2022-11-12T09:23:17.662Z,57.00
2022-11-12T09:25:46.943Z,57.10
2022-11-12T09:28:16.855Z,57.10
2022-11-12T09:30:47.854Z,57.00
2022-11-12T09:33:16.008Z,57.10
2022-11-12T09:35:44.170Z,57.00
2022-11-12T09:38:12.379Z,57.00
2022-11-12T09:40:58.866Z,57.00
2022-11-12T09:43:30.590Z,57.10
2022-11-12T09:46:26.832Z,57.00
2022-11-12T09:48:59.486Z,57.00
2022-11-12T09:51:29.642Z,57.00
2022-11-12T09:53:59.541Z,57.00
2022-11-12T09:56:29.793Z,57.10
2022-11-12T09:58:57.872Z,57.10
2022-11-12T10:01:41.506Z,57.10
2022-11-12T10:04:30.692Z,57.10
2022-11-12T10:07:04.263Z,57.10
2022-11-12T10:09:38.539Z,57.10
2022-11-12T10:12:33.666Z,57.10
2022-11-12T10:15:55.407Z,57.10
2022-11-12T10:18:32.840Z,57.10
2022-11-12T10:21:06.685Z,57.10
2022-11-12T10:23:42.233Z,57.10
2022-11-12T10:26:13.923Z,57.10
2022-11-12T10:28:47.906Z,57.10
2022-11-12T10:31:17.623Z,57.10
2022-11-12T10:33:46.218Z,57.10
2022-11-12T10:36:22.350Z,57.10
2022-11-12T10:38:53.801Z,57.10
2022-11-12T10:41:24.646Z,57.10
2022-11-12T10:43:58.900Z,57.10
2022-11-12T10:46:29.164Z,57.10
2022-11-12T10:49:05.238Z,57.10
2022-11-12T10:51:35.128Z,57.10
2022-11-12T10:54:22.009Z,57.10
2022-11-12T10:56:54.955Z,57.10
2022-11-12T10:59:25.696Z,57.10
2022-11-12T11:01:58.426Z,57.10
2022-11-12T11:04:32.383Z,57.10
2022-11-12T11:07:05.703Z,57.10
2022-11-12T11:09:34.779Z,57.10
2022-11-12T11:12:02.739Z,57.10
2022-11-12T11:14:38.202Z,57.10
2022-11-12T11:17:09.209Z,57.10
2022-11-12T11:19:40.106Z,57.10
2022-11-12T11:22:31.073Z,57.10
2022-11-12T11:25:11.666Z,57.10
2022-11-12T11:27:45.651Z,57.10
2022-11-12T11:30:17.743Z,57.10
2022-11-12T11:33:20.471Z,57.10
2022-11-12T11:35:56.318Z,57.10
2022-11-12T11:38:35.961Z,57.10
2022-11-12T11:41:18.919Z,57.10
2022-11-12T11:43:59.740Z,57.10
2022-11-12T11:46:47.735Z,57.10
2022-11-12T11:49:40.579Z,57.10
2022-11-12T11:52:20.593Z,57.10
2022-11-12T11:55:03.833Z,57.10
2022-11-12T11:57:43.770Z,57.10
2022-11-12T12:00:16.525Z,57.10
2022-11-12T12:03:09.654Z,57.10
2022-11-12T12:05:43.878Z,57.10
2022-11-12T12:08:20.095Z,57.10
2022-11-12T12:11:12.782Z,57.10
2022-11-12T12:13:54.810Z,57.10
2022-11-12T12:16:31.973Z,57.10
2022-11-12T12:19:10.038Z,57.10
2022-11-12T12:21:40.872Z,57.10
2022-11-12T12:24:16.456Z,57.10
2022-11-12T12:26:49.573Z,57.10
2022-11-12T12:29:20.465Z,57.10
2022-11-12T12:31:53.015Z,57.10
2022-11-12T12:34:26.675Z,57.10
2022-11-12T12:37:02.009Z,57.10
2022-11-12T12:39:45.066Z,57.10
2022-11-12T12:42:20.102Z,57.10
2022-11-12T12:45:04.975Z,57.10
2022-11-12T12:47:38.706Z,57.10
2022-11-12T12:50:13.230Z,57.10
2022-11-12T12:53:00.091Z,57.10
2022-11-12T12:55:42.936Z,57.10
2022-11-12T12:58:20.107Z,57.10
2022-11-12T13:00:50.688Z,57.10
2022-11-12T13:03:49.282Z,57.10
2022-11-12T13:06:25.322Z,57.10
2022-11-12T13:08:56.899Z,57.10
2022-11-12T13:12:08.806Z,57.20
2022-11-12T13:15:01.612Z,57.10
2022-11-12T13:17:53.475Z,57.10
2022-11-12T13:20:40.478Z,57.10
2022-11-12T13:24:00.575Z,57.10
2022-11-12T13:26:50.023Z,57.10
2022-11-12T13:29:40.339Z,57.10
2022-11-12T13:32:34.317Z,57.10
2022-11-12T13:35:26.560Z,57.10
2022-11-12T13:37:56.389Z,57.20
2022-11-12T13:40:44.576Z,57.10
2022-11-12T13:43:19.278Z,57.10
2022-11-12T13:45:51.435Z,57.10
2022-11-12T13:48:25.411Z,57.10
2022-11-12T13:50:57.039Z,57.20
2022-11-12T13:53:27.123Z,57.10
2022-11-12T13:55:56.344Z,57.20
2022-11-12T13:58:29.654Z,57.10
2022-11-12T14:01:00.325Z,57.20
2022-11-12T14:03:31.474Z,57.10
2022-11-12T14:06:06.571Z,57.10
2022-11-12T14:08:50.667Z,57.10
2022-11-12T14:11:37.680Z,57.10
2022-11-12T14:14:15.727Z,57.10
2022-11-12T14:16:56.252Z,57.10
2022-11-12T14:20:04.840Z,57.10
2022-11-12T14:22:41.152Z,57.20
2022-11-12T14:25:17.650Z,57.20
2022-11-12T14:27:47.623Z,57.10
2022-11-12T14:30:19.049Z,57.20
2022-11-12T14:32:48.706Z,57.10
2022-11-12T14:35:38.473Z,57.20
2022-11-12T14:38:15.380Z,57.20
2022-11-12T14:40:50.085Z,57.20
2022-11-12T14:43:30.573Z,57.20
2022-11-12T14:46:00.466Z,57.20
2022-11-12T14:48:28.907Z,57.20
2022-11-12T14:51:02.032Z,57.20
2022-11-12T14:53:33.791Z,57.20
2022-11-12T14:56:04.436Z,57.10
2022-11-12T14:58:34.274Z,57.20
2022-11-12T15:02:08.499Z,57.20
2022-11-12T15:04:20.556Z,57.20
2022-11-12T15:06:54.866Z,57.20
2022-11-12T15:09:35.107Z,57.10
2022-11-12T15:12:05.157Z,57.20
2022-11-12T15:14:35.365Z,57.20
2022-11-12T15:17:05.499Z,57.20
2022-11-12T15:19:33.992Z,57.10
2022-11-12T15:22:03.628Z,57.20
2022-11-12T15:24:34.156Z,57.20
2022-11-12T15:27:03.887Z,57.20
2022-11-12T15:29:35.965Z,57.20
2022-11-12T15:32:24.772Z,57.20
2022-11-12T15:34:52.620Z,57.20
2022-11-12T15:37:25.376Z,57.20
2022-11-12T15:39:56.240Z,57.20
2022-11-12T15:42:29.002Z,57.20
2022-11-12T15:45:01.496Z,57.20
2022-11-12T15:47:30.883Z,57.20
2022-11-12T15:49:59.869Z,57.20
2022-11-12T15:52:27.928Z,57.20
2022-11-12T15:54:56.039Z,57.20
2022-11-12T15:57:26.443Z,57.20
2022-11-12T16:00:03.065Z,57.20
2022-11-12T16:02:37.004Z,57.20
2022-11-12T16:05:04.954Z,57.20
2022-11-12T16:07:32.760Z,57.20
2022-11-12T16:10:00.653Z,57.20
2022-11-12T16:12:28.914Z,57.20
2022-11-12T16:14:56.833Z,57.20
2022-11-12T16:17:24.709Z,57.20
2022-11-12T16:19:53.901Z,57.20
2022-11-12T16:22:21.736Z,57.20
2022-11-12T16:24:49.574Z,57.20
2022-11-12T16:27:18.045Z,57.20
2022-11-12T16:29:45.907Z,57.20
2022-11-12T16:32:15.228Z,57.20
2022-11-12T16:34:43.062Z,57.30
2022-11-12T16:37:13.421Z,57.20
2022-11-12T16:39:41.783Z,57.20
2022-11-12T16:42:10.770Z,57.20
2022-11-12T16:44:38.669Z,57.20
2022-11-12T16:47:07.188Z,57.20
2022-11-12T16:49:38.611Z,57.20
2022-11-12T16:52:07.135Z,57.20
2022-11-12T16:54:36.359Z,57.20
2022-11-12T16:57:04.558Z,57.20
2022-11-12T16:59:32.376Z,57.20
2022-11-12T17:02:00.265Z,57.20
2022-11-12T17:04:28.086Z,57.20
2022-11-12T17:06:55.968Z,57.20
2022-11-12T17:09:23.892Z,57.20
2022-11-12T17:11:53.051Z,57.20
2022-11-12T17:14:25.518Z,57.20
2022-11-12T17:16:55.899Z,57.20
2022-11-12T17:19:23.769Z,57.80
2022-11-12T17:21:51.594Z,57.20
2022-11-12T17:24:19.867Z,57.20
2022-11-12T17:26:48.005Z,57.20
2022-11-12T17:29:17.268Z,57.20
2022-11-12T17:31:48.414Z,57.20
2022-11-12T17:34:16.301Z,57.20
2022-11-12T17:36:44.199Z,57.20
2022-11-12T17:39:13.492Z,57.20
2022-11-12T17:41:41.475Z,57.20
2022-11-12T17:44:10.686Z,57.20
2022-11-12T17:46:39.873Z,57.20
2022-11-12T17:49:07.721Z,57.20
2022-11-12T17:51:35.543Z,57.20
2022-11-12T17:54:03.405Z,57.20
2022-11-12T17:56:36.938Z,57.20
2022-11-12T17:59:05.962Z,57.20
2022-11-12T18:01:35.066Z,57.20
2022-11-12T18:04:04.396Z,57.20
2022-11-12T18:06:34.571Z,57.20
2022-11-12T18:09:05.125Z,57.30
2022-11-12T18:11:41.235Z,57.20
2022-11-12T18:14:09.828Z,57.20
2022-11-12T18:16:37.841Z,57.20
2022-11-12T18:19:10.803Z,57.20
2022-11-12T18:21:41.234Z,57.20
2022-11-12T18:24:14.904Z,57.20
2022-11-12T18:26:43.038Z,57.20
2022-11-12T18:29:10.976Z,57.20
2022-11-12T18:31:40.371Z,57.20
2022-11-12T18:34:11.572Z,57.20
2022-11-12T18:36:39.395Z,57.20
2022-11-12T18:39:07.562Z,57.20
2022-11-12T18:41:35.386Z,57.20
2022-11-12T18:44:03.625Z,57.20
2022-11-12T18:46:31.440Z,57.20
2022-11-12T18:48:59.306Z,57.20
2022-11-12T18:51:28.945Z,57.20
2022-11-12T18:53:56.791Z,57.20
2022-11-12T18:56:24.602Z,57.20
2022-11-12T18:58:52.425Z,57.20
2022-11-12T19:01:21.840Z,57.20
2022-11-12T19:03:53.056Z,57.20
2022-11-12T19:06:21.054Z,57.20
2022-11-12T19:08:50.269Z,57.20
2022-11-12T19:11:21.666Z,57.20
2022-11-12T19:13:51.928Z,57.20
2022-11-12T19:16:22.682Z,57.20
2022-11-12T19:18:52.119Z,57.20
2022-11-12T19:21:24.196Z,57.20
2022-11-12T19:23:54.844Z,57.20
2022-11-12T19:26:24.057Z,57.20
2022-11-12T19:28:52.245Z,57.20
2022-11-12T19:31:21.825Z,57.20
2022-11-12T19:33:50.602Z,57.20
2022-11-12T19:36:20.539Z,57.20
2022-11-12T19:38:48.650Z,57.20
2022-11-12T19:41:20.030Z,57.20
2022-11-12T19:43:48.295Z,57.20
2022-11-12T19:46:16.760Z,57.20
2022-11-12T19:48:45.175Z,57.20
2022-11-12T19:51:13.793Z,57.20
2022-11-12T19:53:44.573Z,57.20
2022-11-12T19:56:14.378Z,57.20
2022-11-12T19:58:48.099Z,57.20
2022-11-12T20:01:18.279Z,57.20
2022-11-12T20:03:46.783Z,57.20
2022-11-12T20:06:16.809Z,57.20
2022-11-12T20:08:44.788Z,57.20
2022-11-12T20:11:12.853Z,57.20
2022-11-12T20:13:40.718Z,57.20
2022-11-12T20:16:11.129Z,57.20
2022-11-12T20:18:38.943Z,57.20
2022-11-12T20:21:07.706Z,57.20
2022-11-12T20:23:36.335Z,57.20
2022-11-12T20:26:06.528Z,57.20
2022-11-12T20:28:35.039Z,57.20
2022-11-12T20:31:04.578Z,57.20
2022-11-12T20:33:39.286Z,57.20
2022-11-12T20:36:12.404Z,57.20
2022-11-12T20:38:41.595Z,57.20
2022-11-12T20:41:13.698Z,57.20
2022-11-12T20:43:41.652Z,57.20
2022-11-12T20:46:11.708Z,57.20
2022-11-12T20:48:43.614Z,57.20
2022-11-12T20:51:28.929Z,57.10
2022-11-12T20:54:00.514Z,57.20
2022-11-12T20:56:30.874Z,57.10
2022-11-12T20:58:59.256Z,57.10
2022-11-12T21:01:28.555Z,57.10
2022-11-12T21:03:58.428Z,57.10
2022-11-12T21:06:27.590Z,57.10
2022-11-12T21:08:55.515Z,57.20
2022-11-12T21:11:24.086Z,57.10
2022-11-12T21:13:52.040Z,57.10
2022-11-12T21:16:20.053Z,57.10
2022-11-12T21:18:47.905Z,57.10
2022-11-12T21:21:20.995Z,57.10
2022-11-12T21:23:50.207Z,57.10
2022-11-12T21:26:19.790Z,57.10
2022-11-12T21:28:49.094Z,57.10
2022-11-12T21:31:19.009Z,57.10
2022-11-12T21:33:50.693Z,57.10
2022-11-12T21:36:20.377Z,57.10
2022-11-12T21:38:48.668Z,57.10
2022-11-12T21:41:19.619Z,57.10
2022-11-12T21:43:47.906Z,57.10
2022-11-12T21:46:17.861Z,57.10
2022-11-12T21:48:49.022Z,57.10
2022-11-12T21:51:22.133Z,57.10
2022-11-12T21:53:55.163Z,57.10
2022-11-12T21:56:23.337Z,57.10
2022-11-12T21:58:51.806Z,57.10
2022-11-12T22:01:21.001Z,57.10
2022-11-12T22:03:50.194Z,57.10
2022-11-12T22:06:20.476Z,57.10
2022-11-12T22:08:51.768Z,57.10
2022-11-12T22:11:19.843Z,57.10
2022-11-12T22:13:47.778Z,57.10
2022-11-12T22:16:17.034Z,57.10
2022-11-12T22:18:47.519Z,57.00
2022-11-12T22:21:17.424Z,57.10
2022-11-12T22:23:47.030Z,57.10
2022-11-12T22:26:17.422Z,57.10
2022-11-12T22:28:45.711Z,57.10
2022-11-12T22:31:15.195Z,57.10
2022-11-12T22:33:43.472Z,57.10
2022-11-12T22:36:12.878Z,57.10
2022-11-12T22:38:42.559Z,57.10
2022-11-12T22:41:13.319Z,57.00
2022-11-12T22:43:41.936Z,57.10
2022-11-12T22:46:12.780Z,57.00
2022-11-12T22:48:40.767Z,57.10
2022-11-12T22:51:13.451Z,57.10
2022-11-12T22:53:41.414Z,57.10
2022-11-12T22:56:12.949Z,57.10
2022-11-12T22:58:42.051Z,57.10
2022-11-12T23:01:17.839Z,57.00
2022-11-12T23:03:45.789Z,56.90
2022-11-12T23:06:13.723Z,56.90
2022-11-12T23:08:42.460Z,56.90
2022-11-12T23:11:13.673Z,56.90
2022-11-12T23:13:41.925Z,57.00
2022-11-12T23:16:12.006Z,56.90
2022-11-12T23:18:39.883Z,57.00
2022-11-12T23:21:10.959Z,56.90
2022-11-12T23:23:39.312Z,56.90
2022-11-12T23:26:09.784Z,56.90
2022-11-12T23:28:39.231Z,56.90
2022-11-12T23:31:11.632Z,56.90
2022-11-12T23:33:39.616Z,56.90
2022-11-12T23:36:08.688Z,56.90
2022-11-12T23:38:36.634Z,56.90
2022-11-12T23:41:05.673Z,56.90
2022-11-12T23:43:33.639Z,56.90
2022-11-12T23:46:02.956Z,56.90
2022-11-12T23:48:31.209Z,56.90
2022-11-12T23:51:04.517Z,56.90
2022-11-12T23:53:36.414Z,56.90
2022-11-12T23:56:05.527Z,56.90
2022-11-12T23:58:33.360Z,56.90
